ADDS METAR Data INFO
IDs: Format: Raw Decoded Include TAF

Data at: 0342 UTC 19 Jul 2018

KMRN 190335Z AUTO 00000KT 10SM SCT070 23/19 A3006 RMK AO2 T02250192
KMRN 190315Z AUTO 00000KT 10SM BKN070 22/20 A3005 RMK AO2 T02170201
KMRN 190255Z AUTO 00000KT 10SM BKN070 23/20 A3005 RMK AO2 T02260201
KMRN 190235Z AUTO 00000KT 10SM BKN070 23/20 A3005 RMK AO2 T02270202
KMRN 190215Z AUTO 35003KT 10SM SCT075 24/20 A3004 RMK AO2 T02400195
KMRN 190155Z AUTO 35003KT 10SM CLR 24/20 A3003 RMK AO2 T02370198
KMRN 190135Z AUTO 36003KT 10SM CLR 25/20 A3003 RMK AO2 T02450200
KMRN 190115Z AUTO 34004KT 10SM SCT080 25/20 A3002 RMK AO2 T02450201
KMRN 190055Z AUTO 00000KT 10SM SCT080 SCT090 24/21 A3002 RMK AO2 T02350212
KMRN 190035Z AUTO 00000KT 10SM BKN070 BKN080 25/22 A3002 RMK AO2 T02500218
KMRN 190015Z AUTO 34003KT 10SM SCT070 BKN090 26/19 A3001 RMK AO2 T02620188
KMRN 182355Z AUTO 00000KT 10SM SCT070 SCT090 26/23 A3001 RMK AO2 T02610225 10315 20261
KMRN 182335Z AUTO 00000KT 10SM SCT075 BKN090 27/19 A3000 RMK AO2 T02730190
KMRN 182315Z AUTO 00000KT 10SM SCT075 SCT090 28/18 A2999 RMK AO2 T02790184
KMRN 182255Z AUTO 00000KT 10SM SCT075 29/18 A2999 RMK AO2 T02870175
KMRN 182235Z AUTO 02003KT 10SM SCT080 31/16 A2999 RMK AO2 T03080161
KMRN 182215Z AUTO 00000KT 10SM CLR 30/16 A2999 RMK AO2 T02970158
KMRN 182155Z AUTO 01003KT 10SM CLR 31/15 A2998 RMK AO2 T03050151
KMRN 182135Z AUTO 34003KT 10SM CLR 32/15 A2999 RMK AO2 T03150147
KMRN 182115Z AUTO 32003KT 10SM CLR 32/15 A2999 RMK AO2 T03150152
KMRN 182055Z AUTO 34003KT 10SM CLR 31/15 A2999 RMK AO2 T03110146
KMRN 182035Z AUTO 34003KT 10SM CLR 31/15 A2999 RMK AO2 T03090149
KMRN 182015Z AUTO 34003KT 10SM SCT060 31/15 A3000 RMK AO2 T03060148
KMRN 181955Z AUTO 04003KT 10SM SCT060 31/16 A3001 RMK AO2 T03080156
KMRN 181935Z AUTO 01003KT 10SM BKN060 31/16 A3001 RMK AO2 T03060156
KMRN 181915Z AUTO 00000KT 10SM SCT060 31/16 A3002 RMK AO2 T03110156
KMRN 181855Z AUTO 00000KT 10SM CLR 30/16 A3003 RMK AO2 T03040155
KMRN 181835Z AUTO 25004KT 10SM CLR 31/16 A3003 RMK AO2 T03050156
KMRN 181815Z AUTO 00000KT 10SM CLR 30/15 A3004 RMK AO2 T03030148
KMRN 181755Z AUTO 33004KT 10SM CLR 30/16 A3004 RMK AO2 T03000155 10301 20204
KMRN 181735Z AUTO 00000KT 10SM SCT050 30/16 A3004 RMK AO2 T02960160
KMRN 181715Z AUTO 06003KT 10SM SCT050 30/16 A3005 RMK AO2 T03000160
KMRN 181655Z AUTO 00000KT 10SM CLR 29/16 A3006 RMK AO2 T02890156
KMRN 181635Z AUTO 10003KT 10SM CLR 29/17 A3006 RMK AO2 T02890166
KMRN 181615Z AUTO 33003KT 10SM CLR 28/16 A3007 RMK AO2 T02800163
KMRN 181555Z AUTO 00000KT 10SM CLR 28/17 A3007 RMK AO2 T02790167
KMRN 181535Z AUTO 03004KT 10SM CLR 28/16 A3008 RMK AO2 T02750162
KMRN 181515Z AUTO 00000KT 10SM CLR 27/16 A3008 RMK AO2 T02710163
KMRN 181455Z AUTO 00000KT 10SM CLR 26/16 A3008 RMK AO2 T02640164
KMRN 181435Z AUTO 00000KT 10SM CLR 26/17 A3009 RMK AO2 T02580165
KMRN 181415Z AUTO 01003KT 10SM CLR 26/17 A3008 RMK AO2 T02560168
KMRN 181355Z AUTO 01003KT 10SM CLR 25/17 A3008 RMK AO2 T02500170
KMRN 181335Z AUTO 00000KT 10SM CLR 25/17 A3008 RMK AO2 T02470172
KMRN 181315Z AUTO 02003KT 10SM CLR 24/19 A3008 RMK AO2 T02410185
KMRN 181255Z AUTO 00000KT 10SM CLR 24/18 A3007 RMK AO2 T02370184
KMRN 181235Z AUTO 00000KT 10SM CLR 23/19 A3006 RMK AO2 T02250189
KMRN 181215Z AUTO 00000KT 10SM CLR 21/21 A3006 RMK AO2 T02090206
KMRN 181155Z AUTO 00000KT 10SM CLR 20/20 A3005 RMK AO2 70079 T02030203 10223 20186
KMRN 181135Z AUTO 00000KT 5SM BR CLR 20/20 A3004 RMK AO2 T01950195
KMRN 181115Z AUTO 00000KT 4SM BR CLR 19/19 A3003 RMK AO2 T01900190
KMRN 181055Z AUTO 00000KT 3SM BR CLR 19/19 A3002 RMK AO2 T01860186
KMRN 181035Z AUTO 00000KT 5SM BR CLR 19/19 A3001 RMK AO2 T01900190
KMRN 181015Z AUTO 00000KT 5SM BR CLR 19/19 A3001 RMK AO2 T01900190
KMRN 180955Z AUTO 00000KT 10SM CLR 20/20 A2999 RMK AO2 T02000200
KMRN 180935Z AUTO 00000KT 10SM CLR 20/20 A2999 RMK AO2 T02010201
KMRN 180915Z AUTO 36003KT 7SM CLR 20/20 A2999 RMK AO2 T02030203
KMRN 180855Z AUTO 32003KT 10SM CLR 20/20 A2999 RMK AO2 T02010201
KMRN 180835Z AUTO 00000KT 5SM BR CLR 19/19 A2999 RMK AO2 T01930193
KMRN 180815Z AUTO 00000KT 5SM BR CLR 20/20 A2999 RMK AO2 T02000200
KMRN 180755Z AUTO 00000KT 7SM CLR 20/20 A2999 RMK AO2 T02010201
KMRN 180735Z AUTO 00000KT 7SM CLR 20/20 A2999 RMK AO2 T02030203
KMRN 180715Z AUTO 00000KT 10SM CLR 21/21 A2999 RMK AO2 T02060206
KMRN 180655Z AUTO 00000KT 5SM BR CLR 21/21 A3000 RMK AO2 T02100210
KMRN 180635Z AUTO 00000KT 5SM BR CLR 21/21 A3001 RMK AO2 T02120210
KMRN 180615Z AUTO 00000KT 10SM CLR 22/21 A3001 RMK AO2 T02200212
KMRN 180555Z AUTO 00000KT 10SM CLR 23/21 A3001 RMK AO2 T02250211 10272 20221 403110191
KMRN 180535Z AUTO 33003KT 10SM CLR 23/22 A3002 RMK AO2 T02250217
KMRN 180515Z AUTO 32004KT 10SM CLR 23/22 A3002 RMK AO2 T02250218
KMRN 180455Z AUTO 00000KT 10SM CLR 23/22 A3002 RMK AO2 T02250220
KMRN 180435Z AUTO 00000KT 10SM CLR 23/22 A3001 RMK AO2 T02250223
KMRN 180415Z AUTO 00000KT 10SM CLR 23/22 A3001 RMK AO2 T02250219
KMRN 180355Z AUTO 00000KT 7SM CLR 23/23 A3001 RMK AO2 T02270226
KMRN 180335Z AUTO 00000KT 10SM CLR 23/23 A3001 RMK AO2 T02320231
KMRN 180315Z AUTO 00000KT 7SM CLR 23/23 A3002 RMK AO2 T02340233
KMRN 180255Z AUTO 00000KT 10SM CLR 23/23 A3001 RMK AO2 T02310230
KMRN 180235Z AUTO 00000KT 7SM CLR 23/23 A3001 RMK AO2 T02320231
KMRN 180215Z AUTO 00000KT 10SM CLR 23/23 A3000 RMK AO2 T02320230
KMRN 180155Z AUTO 00000KT 7SM CLR 23/23 A2999 RMK AO2 T02310229
KMRN 180135Z AUTO 00000KT 10SM CLR 24/24 A3000 RMK AO2 T02400235
KMRN 180115Z AUTO 00000KT 7SM CLR 24/24 A2999 RMK AO2 T02400235
KMRN 180055Z AUTO 00000KT 10SM CLR 24/24 A2998 RMK AO2 T02440237
KMRN 180035Z AUTO 00000KT 10SM SCT110 25/24 A2998 RMK AO2 T02520237
KMRN 180015Z AUTO 00000KT 10SM SCT110 26/23 A2997 RMK AO2 T02630231
KMRN 172355Z AUTO 00000KT 10SM SCT090 27/22 A2997 RMK AO2 60078 T02720224 10311 20225
KMRN 172335Z AUTO 02003KT 10SM SCT110 28/23 A2998 RMK AO2 T02770227
KMRN 172315Z AUTO 00000KT 10SM CLR 28/23 A2997 RMK AO2 T02770231
KMRN 172255Z AUTO 33003KT 10SM CLR 28/23 A2997 RMK AO2 T02790226
KMRN 172235Z AUTO 36004KT 10SM CLR 28/22 A2996 RMK AO2 T02840221
KMRN 172215Z AUTO 31006KT 10SM SCT048 30/21 A2996 RMK AO2 T03000211
KMRN 172155Z AUTO 00000KT 10SM CLR 30/21 A2995 RMK AO2 T03010212
KMRN 172135Z AUTO 16003KT 10SM CLR 31/23 A2996 RMK AO2 T03050230
KMRN 172115Z AUTO 00000KT 10SM CLR 31/23 A2996 RMK AO2 T03080225
KMRN 172055Z AUTO 11003KT 10SM CLR 30/23 A2995 RMK AO2 60078 T02970227
KMRN 172035Z AUTO 13003KT 10SM CLR 29/23 A2995 RMK AO2 T02870225
KMRN 172015Z AUTO 12006KT 10SM CLR 29/23 A2995 RMK AO2 T02860233
KMRN 171955Z AUTO 00000KT 10SM CLR 28/23 A2995 RMK AO2 T02770228
KMRN 171935Z AUTO 11005KT 10SM CLR 27/23 A2997 RMK AO2 T02700233
KMRN 171915Z AUTO 00000KT 10SM CLR 25/23 A2997 RMK AO2 T02490231
KMRN 171855Z AUTO 21003KT 10SM CLR 24/22 A2999 RMK AO2 P0078 T02350219
KMRN 171835Z AUTO 14003G14KT 3/4SM +RA BKN006 BKN011 BKN031 23/20 A3001 RMK AO2 P0076 T02310198
KMRN 171815Z AUTO 27011G21KT 2SM +RA SCT006 BKN031 OVC100 26/22 A3002 RMK AO2 P0017 T02620217
KMRN 171755Z AUTO 22003KT 10SM SCT040 SCT048 SCT050 31/19 A2999 RMK AO2 60001 T03100194 10310 20203
KMRN 171735Z AUTO 19005KT 10SM SCT038 SCT047 SCT055 30/20 A3000 RMK AO2 T03040196
KMRN 171715Z AUTO 00000KT 10SM CLR 30/20 A3001 RMK AO2 T02980198
KMRN 171655Z AUTO 21003KT 10SM CLR 30/20 A3002 RMK AO2 T02950203
KMRN 171635Z AUTO 25004KT 10SM CLR 29/21 A3003 RMK AO2 T02910207
KMRN 171615Z AUTO 14003KT 10SM CLR 29/21 A3004 RMK AO2 T02850210
KMRN 171555Z AUTO 00000KT 10SM CLR 28/21 A3004 RMK AO2 T02770213